createdAt,value
2022-07-29T00:01:43.330Z,27.30
2022-07-29T00:04:13.797Z,27.30
2022-07-29T00:06:43.001Z,27.00
2022-07-29T00:09:11.531Z,27.10
2022-07-29T00:11:40.069Z,27.10
2022-07-29T00:14:08.492Z,26.90
2022-07-29T00:16:37.234Z,27.30
2022-07-29T00:19:05.890Z,27.30
2022-07-29T00:21:37.689Z,27.20
2022-07-29T00:24:06.327Z,27.20
2022-07-29T00:26:34.699Z,27.10
2022-07-29T00:29:32.323Z,27.20
2022-07-29T00:31:52.631Z,27.40
2022-07-29T00:34:34.872Z,27.40
2022-07-29T00:37:04.684Z,27.00
2022-07-29T00:39:33.029Z,26.70
2022-07-29T00:42:03.973Z,26.30
2022-07-29T00:44:32.545Z,26.00
2022-07-29T00:47:00.879Z,26.20
2022-07-29T00:49:29.271Z,26.40
2022-07-29T00:51:57.953Z,26.40
2022-07-29T00:54:27.989Z,26.10
2022-07-29T00:56:56.365Z,26.20
2022-07-29T00:59:24.692Z,26.30
2022-07-29T01:02:03.551Z,26.50
2022-07-29T01:04:33.310Z,26.80
2022-07-29T01:07:04.140Z,27.10
2022-07-29T01:09:46.357Z,27.00
2022-07-29T01:12:19.192Z,27.10
2022-07-29T01:14:48.851Z,27.20
2022-07-29T01:17:23.199Z,27.20
2022-07-29T01:19:59.273Z,27.10
2022-07-29T01:22:39.495Z,27.10
2022-07-29T01:25:40.769Z,27.20
2022-07-29T01:28:24.285Z,27.40
2022-07-29T01:30:57.657Z,27.50
2022-07-29T01:33:44.985Z,27.30
2022-07-29T01:36:16.898Z,27.30
2022-07-29T01:38:51.798Z,27.30
2022-07-29T01:41:22.654Z,27.40
2022-07-29T01:43:55.798Z,27.40
2022-07-29T01:46:33.002Z,27.30
2022-07-29T01:49:08.908Z,27.50
2022-07-29T01:51:42.653Z,27.60
2022-07-29T01:54:17.464Z,27.50
2022-07-29T01:56:47.409Z,27.40
2022-07-29T01:59:17.449Z,27.40
2022-07-29T02:01:49.314Z,27.10
2022-07-29T02:04:29.410Z,26.80
2022-07-29T02:07:04.496Z,26.70
2022-07-29T02:09:35.486Z,27.00
2022-07-29T02:12:05.988Z,26.70
2022-07-29T02:14:38.376Z,26.20
2022-07-29T02:17:08.792Z,26.40
2022-07-29T02:19:39.651Z,26.50
2022-07-29T02:22:09.159Z,26.50
2022-07-29T02:24:39.420Z,26.30
2022-07-29T02:27:09.553Z,26.30
2022-07-29T02:29:39.357Z,26.60
2022-07-29T02:32:11.561Z,26.70
2022-07-29T02:34:41.977Z,26.60
2022-07-29T02:37:12.300Z,26.60
2022-07-29T02:39:44.673Z,26.50
2022-07-29T02:42:15.489Z,26.60
2022-07-29T02:44:44.507Z,26.70
2022-07-29T02:47:20.499Z,26.60
2022-07-29T02:49:56.145Z,26.60
2022-07-29T02:52:29.065Z,26.50
2022-07-29T02:55:00.469Z,26.20
2022-07-29T02:57:36.085Z,26.20
2022-07-29T03:00:25.939Z,26.30
2022-07-29T03:02:58.249Z,26.40
2022-07-29T03:05:27.904Z,26.70
2022-07-29T03:08:00.014Z,26.80
2022-07-29T03:10:29.518Z,27.00
2022-07-29T03:12:59.113Z,26.90
2022-07-29T03:15:28.587Z,27.00
2022-07-29T03:17:58.861Z,27.10
2022-07-29T03:20:27.770Z,27.20
2022-07-29T03:22:56.388Z,27.10
2022-07-29T03:25:24.709Z,26.90
2022-07-29T03:27:53.053Z,26.70
2022-07-29T03:30:22.202Z,26.40
2022-07-29T03:32:52.559Z,25.90
2022-07-29T03:35:22.527Z,25.70
2022-07-29T03:37:51.384Z,25.50
2022-07-29T03:40:24.678Z,25.50
2022-07-29T03:42:56.270Z,25.40
2022-07-29T03:45:26.240Z,25.20
2022-07-29T03:48:02.973Z,25.20
2022-07-29T03:50:33.893Z,25.20
2022-07-29T03:53:02.999Z,25.10
2022-07-29T03:55:34.523Z,25.30
2022-07-29T03:58:04.323Z,25.50
2022-07-29T04:00:34.506Z,25.50
2022-07-29T04:03:03.520Z,25.50
2022-07-29T04:05:33.286Z,25.60
2022-07-29T04:08:01.607Z,25.50
2022-07-29T04:10:31.971Z,25.40
2022-07-29T04:13:02.729Z,25.40
2022-07-29T04:15:31.876Z,25.10
2022-07-29T04:18:00.881Z,24.90
2022-07-29T04:20:29.591Z,24.90
2022-07-29T04:22:59.342Z,25.00
2022-07-29T04:25:27.643Z,25.00
2022-07-29T04:28:05.003Z,24.90
2022-07-29T04:30:34.640Z,24.90
2022-07-29T04:33:03.348Z,24.90
2022-07-29T04:35:38.022Z,24.80
2022-07-29T04:38:15.820Z,24.70
2022-07-29T04:40:45.664Z,24.70
2022-07-29T04:43:16.096Z,24.80
2022-07-29T04:45:44.460Z,24.80
2022-07-29T04:48:12.991Z,24.90
2022-07-29T04:50:41.801Z,25.00
2022-07-29T04:53:11.514Z,25.20
2022-07-29T04:55:39.856Z,25.50
2022-07-29T04:58:08.586Z,25.30
2022-07-29T05:00:37.085Z,25.30
2022-07-29T05:03:05.750Z,25.40
2022-07-29T05:05:34.333Z,25.60
2022-07-29T05:08:02.787Z,25.40
2022-07-29T05:10:32.509Z,25.40
2022-07-29T05:13:00.836Z,25.50
2022-07-29T05:15:29.192Z,25.50
2022-07-29T05:17:57.829Z,25.40
2022-07-29T05:20:29.184Z,25.50
2022-07-29T05:22:57.685Z,25.60
2022-07-29T05:25:44.111Z,25.80
2022-07-29T05:28:14.756Z,25.90
2022-07-29T05:30:45.391Z,25.80
2022-07-29T05:33:35.887Z,25.90
2022-07-29T05:36:02.105Z,25.60
2022-07-29T05:38:31.130Z,25.50
2022-07-29T05:41:00.406Z,25.50
2022-07-29T05:43:30.767Z,25.80
2022-07-29T05:45:59.201Z,25.90
2022-07-29T05:48:27.595Z,25.90
2022-07-29T05:50:56.384Z,25.80
2022-07-29T05:53:25.220Z,26.00
2022-07-29T05:55:53.891Z,25.90
2022-07-29T05:58:22.561Z,26.00
2022-07-29T06:00:52.261Z,26.20
2022-07-29T06:03:20.845Z,26.40
2022-07-29T06:05:49.197Z,26.60
2022-07-29T06:08:17.572Z,26.80
2022-07-29T06:10:46.587Z,26.80
2022-07-29T06:13:16.985Z,27.00
2022-07-29T06:15:45.785Z,26.80
2022-07-29T06:18:16.286Z,26.90
2022-07-29T06:20:44.941Z,26.70
2022-07-29T06:23:13.289Z,26.90
2022-07-29T06:25:42.520Z,26.90
2022-07-29T06:28:11.072Z,27.00
2022-07-29T06:30:39.518Z,27.30
2022-07-29T06:33:08.090Z,27.20
2022-07-29T06:35:42.419Z,27.40
2022-07-29T06:38:30.732Z,27.70
2022-07-29T06:41:08.141Z,27.80
2022-07-29T06:43:52.599Z,27.80
2022-07-29T06:46:24.487Z,27.70
2022-07-29T06:48:53.665Z,27.70
2022-07-29T06:51:24.296Z,27.90
2022-07-29T06:53:58.411Z,27.90
2022-07-29T06:56:30.546Z,28.00
2022-07-29T06:58:58.920Z,28.20
2022-07-29T07:01:27.360Z,28.00
2022-07-29T07:03:55.777Z,28.40
2022-07-29T07:06:25.617Z,28.30
2022-07-29T07:08:53.915Z,28.50
2022-07-29T07:11:22.419Z,28.20
2022-07-29T07:13:50.808Z,28.00
2022-07-29T07:16:19.381Z,28.20
2022-07-29T07:18:47.839Z,28.40
2022-07-29T07:21:19.076Z,28.40
2022-07-29T07:23:49.341Z,28.20
2022-07-29T07:26:17.726Z,28.40
2022-07-29T07:28:46.095Z,28.30
2022-07-29T07:31:15.263Z,28.50
2022-07-29T07:33:43.627Z,28.70
2022-07-29T07:36:11.945Z,28.90
2022-07-29T07:38:40.256Z,28.90
2022-07-29T07:41:10.108Z,29.20
2022-07-29T07:43:39.185Z,29.30
2022-07-29T07:46:08.412Z,29.50
2022-07-29T07:48:37.422Z,29.60
2022-07-29T07:51:05.880Z,29.70
2022-07-29T07:53:35.078Z,29.70
2022-07-29T07:56:12.473Z,29.60
2022-07-29T07:58:42.524Z,29.60
2022-07-29T08:01:11.548Z,29.50
2022-07-29T08:03:40.578Z,29.80
2022-07-29T08:06:09.560Z,30.00
2022-07-29T08:08:38.003Z,30.00
2022-07-29T08:11:09.773Z,30.30
2022-07-29T08:13:39.180Z,30.20
2022-07-29T08:16:16.885Z,30.10
2022-07-29T08:18:46.535Z,29.90
2022-07-29T08:21:15.929Z,30.20
2022-07-29T08:23:59.618Z,30.20
2022-07-29T08:26:28.201Z,30.10
2022-07-29T08:28:56.819Z,30.00
2022-07-29T08:31:26.732Z,30.20
2022-07-29T08:33:57.179Z,30.40
2022-07-29T08:36:26.523Z,30.30
2022-07-29T08:38:55.097Z,30.30
2022-07-29T08:41:24.010Z,30.40
2022-07-29T08:43:53.337Z,30.50
2022-07-29T08:46:22.992Z,30.50
2022-07-29T08:48:52.969Z,30.60
2022-07-29T08:51:22.751Z,30.80
2022-07-29T08:53:52.466Z,31.10
2022-07-29T08:56:21.949Z,31.10
2022-07-29T08:58:52.405Z,31.30
2022-07-29T09:01:36.273Z,31.50
2022-07-29T09:04:14.381Z,31.30
2022-07-29T09:06:46.507Z,31.40
2022-07-29T09:09:15.930Z,31.40
2022-07-29T09:11:45.134Z,31.60
2022-07-29T09:14:15.241Z,31.60
2022-07-29T09:16:54.034Z,31.70
2022-07-29T09:19:26.515Z,31.90
2022-07-29T09:22:03.310Z,31.90
2022-07-29T09:24:43.456Z,31.60
2022-07-29T09:27:23.137Z,31.20
2022-07-29T09:30:01.955Z,31.40
2022-07-29T09:32:30.644Z,31.60
2022-07-29T09:35:24.309Z,31.80
2022-07-29T09:37:53.451Z,31.70
2022-07-29T09:40:23.538Z,31.90
2022-07-29T09:42:52.683Z,32.00
2022-07-29T09:45:31.492Z,31.90
2022-07-29T09:48:04.006Z,31.90
2022-07-29T09:50:41.545Z,31.90
2022-07-29T09:53:11.525Z,32.00
2022-07-29T09:55:51.740Z,32.20
2022-07-29T09:58:21.730Z,32.10
2022-07-29T10:00:51.687Z,32.10
2022-07-29T10:03:21.048Z,32.30
2022-07-29T10:06:07.111Z,32.30
2022-07-29T10:08:36.198Z,32.50
2022-07-29T10:11:15.580Z,32.60
2022-07-29T10:13:46.416Z,32.70
2022-07-29T10:16:16.020Z,32.90
2022-07-29T10:18:45.697Z,33.00
2022-07-29T10:21:34.989Z,33.10
2022-07-29T10:24:04.358Z,33.10
2022-07-29T10:26:33.195Z,33.20
2022-07-29T10:29:02.576Z,33.20
2022-07-29T10:31:38.404Z,33.20
2022-07-29T10:34:15.960Z,33.30
2022-07-29T10:36:57.092Z,33.30
2022-07-29T10:39:44.617Z,33.10
2022-07-29T10:42:29.791Z,32.90
2022-07-29T10:45:01.977Z,32.90
2022-07-29T10:47:31.091Z,33.10
2022-07-29T10:50:01.164Z,33.20
2022-07-29T10:53:01.211Z,33.40
2022-07-29T10:55:35.748Z,33.50
2022-07-29T10:58:15.417Z,33.60
2022-07-29T11:00:45.644Z,33.80
2022-07-29T11:03:57.211Z,33.90
2022-07-29T11:06:28.163Z,33.80
2022-07-29T11:09:25.594Z,33.80
2022-07-29T11:12:04.402Z,33.50
2022-07-29T11:14:59.068Z,33.60
2022-07-29T11:17:27.487Z,33.70
2022-07-29T11:20:33.595Z,33.90
2022-07-29T11:23:02.376Z,34.10
2022-07-29T11:25:48.519Z,34.10
2022-07-29T11:28:25.282Z,33.90
2022-07-29T11:30:56.172Z,33.70
2022-07-29T11:33:54.624Z,33.70
2022-07-29T11:36:18.846Z,33.90
2022-07-29T11:39:36.701Z,33.80
2022-07-29T11:42:41.970Z,33.90
2022-07-29T11:48:32.054Z,33.90
2022-07-29T11:50:54.654Z,33.90
2022-07-29T11:53:23.692Z,34.20
2022-07-29T11:55:58.350Z,34.30
2022-07-29T11:58:27.237Z,34.40
2022-07-29T12:00:57.588Z,34.10
2022-07-29T12:03:35.043Z,34.20
2022-07-29T12:06:04.788Z,34.30
2022-07-29T12:07:03.188Z,33.90
2022-07-29T12:08:43.613Z,34.60
2022-07-29T12:11:20.403Z,34.30
2022-07-29T12:13:50.254Z,34.10
2022-07-29T12:16:25.867Z,34.20
2022-07-29T12:18:58.779Z,34.40
2022-07-29T12:21:29.069Z,34.40
2022-07-29T12:24:09.331Z,34.40
2022-07-29T12:26:38.361Z,34.30
2022-07-29T12:29:14.047Z,34.50
2022-07-29T12:31:55.101Z,34.40
2022-07-29T12:34:32.997Z,34.40
2022-07-29T12:37:02.079Z,34.40
2022-07-29T12:39:30.704Z,34.30
2022-07-29T12:42:04.004Z,34.40
2022-07-29T12:44:46.582Z,34.30
2022-07-29T12:47:16.392Z,34.20
2022-07-29T12:49:44.906Z,34.40
2022-07-29T12:52:37.559Z,34.50
2022-07-29T12:55:06.940Z,34.40
2022-07-29T12:57:48.018Z,34.50
2022-07-29T13:00:17.444Z,34.50
2022-07-29T13:02:57.912Z,34.60
2022-07-29T13:05:26.963Z,34.70
2022-07-29T13:07:57.374Z,34.60
2022-07-29T13:10:27.019Z,34.70
2022-07-29T13:15:45.047Z,34.90
2022-07-29T13:18:34.991Z,34.70
2022-07-29T13:21:13.786Z,34.70
2022-07-29T13:23:42.209Z,34.60
2022-07-29T13:26:12.431Z,34.40
2022-07-29T13:28:41.037Z,34.30
2022-07-29T13:31:12.889Z,34.40
2022-07-29T13:33:42.718Z,34.40
2022-07-29T13:36:11.481Z,34.20
2022-07-29T13:38:39.883Z,34.30
2022-07-29T13:41:08.408Z,34.40
2022-07-29T13:43:37.073Z,34.40
2022-07-29T13:46:05.469Z,34.40
2022-07-29T13:48:34.156Z,34.50
2022-07-29T13:51:04.123Z,34.60
2022-07-29T13:53:32.493Z,34.60
2022-07-29T13:56:01.075Z,34.80
2022-07-29T13:58:29.425Z,34.70
2022-07-29T14:00:58.650Z,34.70
2022-07-29T14:03:27.102Z,34.60
2022-07-29T14:05:55.473Z,34.60
2022-07-29T14:08:25.376Z,34.50
2022-07-29T14:10:53.706Z,34.60
2022-07-29T14:13:24.900Z,34.60
2022-07-29T14:15:55.128Z,34.60
2022-07-29T14:18:23.495Z,34.50
2022-07-29T14:20:52.186Z,34.60
2022-07-29T14:23:20.803Z,34.50
2022-07-29T14:25:50.544Z,34.50
2022-07-29T14:28:18.952Z,34.40
2022-07-29T14:30:47.360Z,34.20
2022-07-29T14:33:15.706Z,34.30
2022-07-29T14:35:44.682Z,34.30
2022-07-29T14:38:13.137Z,34.30
2022-07-29T14:40:41.513Z,34.20
2022-07-29T14:43:11.284Z,34.20
2022-07-29T14:45:39.675Z,34.20
2022-07-29T14:48:08.221Z,34.10
2022-07-29T14:50:36.519Z,34.10
2022-07-29T14:53:05.413Z,34.10
2022-07-29T14:55:33.765Z,34.10
2022-07-29T14:58:08.942Z,34.00
2022-07-29T15:00:40.801Z,34.10
2022-07-29T15:03:11.296Z,34.10
2022-07-29T15:05:40.045Z,34.10
2022-07-29T15:08:09.652Z,34.10
2022-07-29T15:10:38.062Z,34.10
2022-07-29T15:13:06.397Z,34.10
2022-07-29T15:15:34.855Z,34.10
2022-07-29T15:18:04.688Z,34.10
2022-07-29T15:20:33.172Z,34.00
2022-07-29T15:23:01.479Z,33.90
2022-07-29T15:25:29.833Z,33.90
2022-07-29T15:28:01.756Z,33.60
2022-07-29T15:30:33.389Z,33.50
2022-07-29T15:33:04.946Z,33.30
2022-07-29T15:35:33.355Z,33.30
2022-07-29T15:38:08.555Z,33.20
2022-07-29T15:40:38.529Z,33.20
2022-07-29T15:43:08.079Z,33.20
2022-07-29T15:45:40.827Z,33.20
2022-07-29T15:48:14.565Z,33.00
2022-07-29T15:50:46.922Z,33.10
2022-07-29T15:53:15.736Z,33.10
2022-07-29T15:55:44.384Z,33.10
2022-07-29T15:58:13.020Z,33.00
2022-07-29T16:00:41.657Z,32.90
2022-07-29T16:03:11.435Z,32.90
2022-07-29T16:05:39.767Z,32.80
2022-07-29T16:08:08.186Z,32.70
2022-07-29T16:10:36.629Z,32.60
2022-07-29T16:13:05.073Z,32.70
2022-07-29T16:15:33.601Z,32.60
2022-07-29T16:18:01.917Z,32.50
2022-07-29T16:20:32.925Z,32.30
2022-07-29T16:23:01.262Z,32.40
2022-07-29T16:25:50.221Z,32.40
2022-07-29T16:28:18.709Z,32.40
2022-07-29T16:30:47.059Z,32.30
2022-07-29T16:33:15.615Z,32.20
2022-07-29T16:35:45.405Z,32.20
2022-07-29T16:38:13.751Z,32.10
2022-07-29T16:40:42.169Z,32.10
2022-07-29T16:43:10.658Z,32.10
2022-07-29T16:45:45.165Z,32.00
2022-07-29T16:48:14.749Z,32.10
2022-07-29T16:50:44.508Z,32.00
2022-07-29T16:53:12.904Z,32.00
2022-07-29T16:55:43.709Z,32.00
2022-07-29T16:58:12.678Z,32.00
2022-07-29T17:00:41.177Z,31.90
2022-07-29T17:03:09.677Z,31.90
2022-07-29T17:05:52.085Z,31.80
2022-07-29T17:08:24.460Z,31.80
2022-07-29T17:10:52.814Z,31.70
2022-07-29T17:13:21.357Z,31.80
2022-07-29T17:15:49.821Z,31.80
2022-07-29T17:18:18.213Z,31.60
2022-07-29T17:20:46.683Z,31.60
2022-07-29T17:23:14.990Z,31.60
2022-07-29T17:25:44.833Z,31.60
2022-07-29T17:28:13.153Z,31.60
2022-07-29T17:30:41.849Z,31.70
2022-07-29T17:33:10.169Z,31.50
2022-07-29T17:35:55.820Z,31.40
2022-07-29T17:38:24.190Z,31.40
2022-07-29T17:40:53.928Z,31.30
2022-07-29T17:43:22.216Z,31.10
2022-07-29T17:45:50.993Z,31.10
2022-07-29T17:48:19.922Z,31.10
2022-07-29T17:50:49.140Z,31.20
2022-07-29T17:53:18.197Z,31.20
2022-07-29T17:55:48.748Z,31.30
2022-07-29T17:58:18.672Z,31.30
2022-07-29T18:00:47.298Z,31.10
2022-07-29T18:03:15.893Z,31.20
2022-07-29T18:05:44.306Z,31.00
2022-07-29T18:08:12.866Z,31.00
2022-07-29T18:10:42.024Z,31.00
2022-07-29T18:13:11.606Z,30.90
2022-07-29T18:15:41.533Z,30.90
2022-07-29T18:18:10.457Z,30.90
2022-07-29T18:20:38.897Z,31.00
2022-07-29T18:23:07.232Z,30.80
2022-07-29T18:25:35.958Z,30.80
2022-07-29T18:28:05.068Z,30.70
2022-07-29T18:30:36.806Z,30.70
2022-07-29T18:33:24.300Z,30.60
2022-07-29T18:36:11.109Z,30.60
2022-07-29T18:38:40.809Z,30.50
2022-07-29T18:41:09.282Z,30.50
2022-07-29T18:43:37.964Z,30.50
2022-07-29T18:46:06.831Z,30.20
2022-07-29T18:48:36.871Z,30.20
2022-07-29T18:51:09.263Z,30.20
2022-07-29T18:53:38.024Z,30.10
2022-07-29T18:56:06.945Z,30.10
2022-07-29T18:58:37.126Z,30.00
2022-07-29T19:01:05.616Z,30.00
2022-07-29T19:03:34.105Z,30.00
2022-07-29T19:06:03.974Z,29.90
2022-07-29T19:08:33.338Z,29.90
2022-07-29T19:11:01.670Z,29.90
2022-07-29T19:13:31.020Z,29.80
2022-07-29T19:15:59.503Z,29.90
2022-07-29T19:18:28.950Z,29.70
2022-07-29T19:20:57.317Z,29.60
2022-07-29T19:23:27.710Z,29.20
2022-07-29T19:25:56.217Z,28.60
2022-07-29T19:28:24.913Z,27.90
2022-07-29T19:30:53.349Z,27.30
2022-07-29T19:33:21.772Z,26.80
2022-07-29T19:35:54.555Z,26.70
2022-07-29T19:38:24.184Z,26.80
2022-07-29T19:40:54.075Z,26.70
2022-07-29T19:43:51.561Z,26.70
2022-07-29T19:46:10.820Z,26.70
2022-07-29T19:48:39.229Z,26.50
2022-07-29T19:51:07.588Z,26.60
2022-07-29T19:53:36.000Z,26.60
2022-07-29T19:56:06.366Z,26.40
2022-07-29T19:58:37.455Z,25.70
2022-07-29T20:01:10.389Z,25.30
2022-07-29T20:03:40.223Z,25.20
2022-07-29T20:06:08.835Z,24.90
2022-07-29T20:08:37.262Z,25.20
2022-07-29T20:11:07.708Z,25.50
2022-07-29T20:13:36.098Z,25.60
2022-07-29T20:16:06.576Z,25.90
2022-07-29T20:18:35.160Z,26.00
2022-07-29T20:21:05.236Z,26.20
2022-07-29T20:23:33.868Z,26.30
2022-07-29T20:26:03.442Z,26.50
2022-07-29T20:28:34.987Z,25.90
2022-07-29T20:31:03.371Z,25.80
2022-07-29T20:33:31.758Z,25.90
2022-07-29T20:36:00.111Z,25.90
2022-07-29T20:38:28.565Z,26.00
2022-07-29T20:40:58.728Z,26.10
2022-07-29T20:43:29.721Z,25.90
2022-07-29T20:45:59.580Z,25.80
2022-07-29T20:48:27.997Z,25.70
2022-07-29T20:50:56.344Z,25.70
2022-07-29T20:53:24.672Z,25.70
2022-07-29T20:55:53.019Z,25.90
2022-07-29T20:58:21.331Z,26.10
2022-07-29T21:00:51.836Z,26.20
2022-07-29T21:03:22.413Z,26.20
2022-07-29T21:05:51.542Z,25.80
2022-07-29T21:08:19.874Z,25.60
2022-07-29T21:10:48.184Z,25.60
2022-07-29T21:13:16.726Z,25.90
2022-07-29T21:15:48.460Z,26.20
2022-07-29T21:18:27.320Z,26.30
2022-07-29T21:20:57.422Z,26.50
2022-07-29T21:23:26.039Z,26.50
2022-07-29T21:25:55.150Z,26.50
2022-07-29T21:28:36.887Z,26.70
2022-07-29T21:31:07.873Z,26.80
2022-07-29T21:33:36.820Z,26.70
2022-07-29T21:36:27.115Z,26.70
2022-07-29T21:38:56.987Z,26.80
2022-07-29T21:41:25.349Z,26.50
2022-07-29T21:43:54.707Z,26.20
2022-07-29T21:46:26.708Z,25.60
2022-07-29T21:48:55.133Z,25.60
2022-07-29T21:51:24.918Z,25.60
2022-07-29T21:53:53.328Z,25.50
2022-07-29T21:56:27.826Z,25.20
2022-07-29T21:58:56.391Z,25.30
2022-07-29T22:01:25.546Z,25.30
2022-07-29T22:03:53.993Z,25.70
2022-07-29T22:06:23.707Z,25.90
2022-07-29T22:08:53.637Z,25.70
2022-07-29T22:11:22.102Z,25.60
2022-07-29T22:13:50.505Z,25.60
2022-07-29T22:16:19.072Z,25.50
2022-07-29T22:18:48.363Z,25.60
2022-07-29T22:21:18.208Z,25.30
2022-07-29T22:23:46.519Z,25.40
2022-07-29T22:26:16.297Z,25.40
2022-07-29T22:28:45.679Z,25.20
2022-07-29T22:31:14.052Z,25.20
2022-07-29T22:33:42.524Z,25.40
2022-07-29T22:36:10.987Z,25.50
2022-07-29T22:38:39.293Z,25.50
2022-07-29T22:41:07.709Z,25.10
2022-07-29T22:43:40.033Z,25.00
2022-07-29T22:46:10.113Z,25.50
2022-07-29T22:48:39.152Z,25.60
2022-07-29T22:51:07.541Z,25.70
2022-07-29T22:53:37.476Z,25.70
2022-07-29T22:56:06.167Z,25.80
2022-07-29T22:58:34.689Z,26.10
2022-07-29T23:01:04.468Z,26.20
2022-07-29T23:03:32.917Z,26.30
2022-07-29T23:06:01.506Z,26.30
2022-07-29T23:08:30.112Z,25.90
2022-07-29T23:10:58.501Z,25.60
2022-07-29T23:13:28.135Z,25.60
2022-07-29T23:16:02.374Z,25.80
2022-07-29T23:18:32.177Z,25.90
2022-07-29T23:21:00.536Z,26.00
2022-07-29T23:23:32.390Z,26.10
2022-07-29T23:26:00.879Z,26.30
2022-07-29T23:28:29.214Z,26.40
2022-07-29T23:30:57.613Z,26.20
2022-07-29T23:33:25.975Z,26.30
2022-07-29T23:35:55.663Z,26.30
2022-07-29T23:38:23.971Z,26.30
2022-07-29T23:40:52.688Z,26.20
2022-07-29T23:43:21.005Z,26.00
2022-07-29T23:45:49.375Z,26.10
2022-07-29T23:48:17.810Z,25.90
2022-07-29T23:50:46.147Z,25.80
2022-07-29T23:53:15.916Z,26.10
2022-07-29T23:55:44.245Z,26.10
2022-07-29T23:58:12.569Z,26.10
